Time;durP1;ratioP1;P1;durP2;ratioP2;P2;SDS_P1;SDS_P2;PMS_P1;PMS_P2;Temp;Humidity;BMP_temperature;BMP_pressure;BME280_temperature;BME280_humidity;BME280_pressure;Samples;Min_cycle;Max_cycle;Signal;HPM_P1;HPM_P2
2022/01/29 00:01:12;;;;;;;16.80;5.83;;;;;;;;;;6233088;23;20206;-89
2022/01/29 00:04:17;;;;;;;15.33;4.77;;;;;;;;;;6231906;23;20166;-91
2022/01/29 00:07:24;;;;;;;17.77;4.93;;;;;;;;;;6235100;23;20148;-90
2022/01/29 00:10:31;;;;;;;17.60;4.90;;;;;;;;;;6235926;23;20187;-92
2022/01/29 00:14:18;;;;;;;14.60;5.10;;;;;;;;;;6238118;23;20174;-89
2022/01/29 00:17:23;;;;;;;12.00;4.60;;;;;;;;;;6236533;23;20179;-91
2022/01/29 00:20:29;;;;;;;19.60;6.97;;;;;;;;;;6232071;23;20167;-90
2022/01/29 00:23:35;;;;;;;20.37;6.53;;;;;;;;;;6232512;23;20244;-91
2022/01/29 00:26:41;;;;;;;13.77;5.23;;;;;;;;;;6235213;23;20194;-89
2022/01/29 00:29:46;;;;;;;20.53;6.30;;;;;;;;;;6233279;23;20224;-91
2022/01/29 00:32:53;;;;;;;18.30;4.73;;;;;;;;;;6234142;23;20210;-90
2022/01/29 00:36:01;;;;;;;18.50;5.50;;;;;;;;;;6233060;23;20167;-90
2022/01/29 00:39:14;;;;;;;17.20;5.47;;;;;;;;;;6234551;23;20222;-93
2022/01/29 00:42:23;;;;;;;13.50;5.83;;;;;;;;;;6235220;23;20199;-89
2022/01/29 00:45:37;;;;;;;23.20;8.13;;;;;;;;;;6232744;23;20175;-88
2022/01/29 00:48:42;;;;;;;28.37;9.37;;;;;;;;;;6232357;23;20197;-90
2022/01/29 00:51:48;;;;;;;22.23;7.07;;;;;;;;;;6232035;23;20159;-90
2022/01/29 00:54:55;;;;;;;17.20;6.03;;;;;;;;;;6235283;23;20154;-90
2022/01/29 00:58:00;;;;;;;19.23;6.63;;;;;;;;;;6234426;23;20154;-92
2022/01/29 01:01:05;;;;;;;22.23;7.90;;;;;;;;;;6225071;23;20256;-88
2022/01/29 01:04:10;;;;;;;25.87;10.40;;;;;;;;;;6189030;23;20549;-89
2022/01/29 01:07:16;;;;;;;27.73;7.53;;;;;;;;;;6189403;23;20241;-91
2022/01/29 01:10:24;;;;;;;26.80;7.80;;;;;;;;;;6187949;23;20172;-90
2022/01/29 01:13:30;;;;;;;19.47;6.73;;;;;;;;;;6189945;23;20172;-93
2022/01/29 01:16:36;;;;;;;20.27;8.13;;;;;;;;;;6188121;23;20167;-92
2022/01/29 01:19:42;;;;;;;18.17;6.20;;;;;;;;;;6188395;23;20163;-92
2022/01/29 01:22:47;;;;;;;17.93;6.67;;;;;;;;;;6186975;23;20180;-92
2022/01/29 01:25:54;;;;;;;31.40;7.90;;;;;;;;;;6186557;23;20167;-93
2022/01/29 01:29:02;;;;;;;19.70;6.93;;;;;;;;;;6186955;23;20196;-90
2022/01/29 01:32:15;;;;;;;15.37;5.77;;;;;;;;;;6186951;23;20176;-91
2022/01/29 01:35:25;;;;;;;16.27;5.90;;;;;;;;;;6186933;23;20169;-92
2022/01/29 01:38:38;;;;;;;15.33;5.13;;;;;;;;;;6188141;23;20168;-91
2022/01/29 01:41:54;;;;;;;17.00;5.87;;;;;;;;;;6187224;23;20199;-92
2022/01/29 01:44:59;;;;;;;22.33;7.37;;;;;;;;;;6187362;23;20171;-92
2022/01/29 01:48:06;;;;;;;23.10;7.30;;;;;;;;;;6187415;23;20243;-91
2022/01/29 01:51:13;;;;;;;23.43;7.30;;;;;;;;;;6187736;23;20195;-90
2022/01/29 01:54:19;;;;;;;15.77;6.63;;;;;;;;;;6186442;23;20168;-89
2022/01/29 01:57:25;;;;;;;19.73;6.70;;;;;;;;;;6187126;23;20168;-92
2022/01/29 02:00:31;;;;;;;26.80;6.40;;;;;;;;;;6187513;23;20180;-92
2022/01/29 02:03:36;;;;;;;15.00;6.43;;;;;;;;;;6188309;23;20220;-90
2022/01/29 02:06:41;;;;;;;19.10;6.73;;;;;;;;;;6186607;23;20237;-90
2022/01/29 02:09:47;;;;;;;23.27;7.87;;;;;;;;;;6188572;23;20168;-92
2022/01/29 02:12:56;;;;;;;20.00;8.00;;;;;;;;;;6188148;23;20160;-91
2022/01/29 02:16:03;;;;;;;27.90;7.77;;;;;;;;;;6186822;23;20167;-92
2022/01/29 02:19:09;;;;;;;16.57;7.30;;;;;;;;;;6189131;23;20175;-90
2022/01/29 02:22:16;;;;;;;14.87;7.10;;;;;;;;;;6188166;23;20235;-91
2022/01/29 02:25:36;;;;;;;17.47;6.83;;;;;;;;;;6188899;23;20195;-92
2022/01/29 02:28:42;;;;;;;16.43;6.73;;;;;;;;;;6186228;23;20176;-92
2022/01/29 02:31:49;;;;;;;15.80;7.17;;;;;;;;;;6189315;23;20160;-90
2022/01/29 02:34:55;;;;;;;21.63;8.20;;;;;;;;;;6187726;23;20188;-91
2022/01/29 02:38:03;;;;;;;23.13;8.10;;;;;;;;;;6186447;23;20175;-91
2022/01/29 02:41:09;;;;;;;17.83;7.77;;;;;;;;;;6185453;23;20489;-90
2022/01/29 02:44:17;;;;;;;23.33;7.97;;;;;;;;;;6186262;23;20168;-90
2022/01/29 02:47:30;;;;;;;17.57;7.07;;;;;;;;;;6187248;23;20168;-90
2022/01/29 02:50:35;;;;;;;17.87;7.57;;;;;;;;;;6183980;23;20172;-89
2022/01/29 02:53:42;;;;;;;18.57;6.70;;;;;;;;;;6185642;23;20179;-92
2022/01/29 02:56:48;;;;;;;16.17;6.17;;;;;;;;;;6185009;23;20171;-90
2022/01/29 02:59:57;;;;;;;16.43;5.87;;;;;;;;;;6185194;23;20172;-90
2022/01/29 03:03:02;;;;;;;14.17;5.93;;;;;;;;;;6185785;23;20202;-91
2022/01/29 03:06:09;;;;;;;17.50;5.63;;;;;;;;;;6186626;23;20172;-90
2022/01/29 03:09:16;;;;;;;17.40;6.73;;;;;;;;;;6187373;23;20176;-90
2022/01/29 03:12:21;;;;;;;19.00;6.30;;;;;;;;;;6188832;23;20192;-92
2022/01/29 03:15:30;;;;;;;13.67;5.90;;;;;;;;;;6187459;23;20192;-90
2022/01/29 03:18:37;;;;;;;17.70;6.07;;;;;;;;;;6191062;23;20184;-90
2022/01/29 03:21:43;;;;;;;17.30;6.00;;;;;;;;;;6191250;23;20186;-92
2022/01/29 03:24:51;;;;;;;13.33;5.77;;;;;;;;;;6188031;23;20184;-89
2022/01/29 03:27:57;;;;;;;16.27;6.57;;;;;;;;;;6188244;23;20622;-91
2022/01/29 03:31:05;;;;;;;19.70;7.03;;;;;;;;;;6186959;23;20147;-92
2022/01/29 03:34:11;;;;;;;19.13;6.13;;;;;;;;;;6189855;23;20205;-91
2022/01/29 03:37:17;;;;;;;21.17;6.40;;;;;;;;;;6188822;23;20184;-91
2022/01/29 03:40:28;;;;;;;13.50;6.40;;;;;;;;;;6205472;23;20168;-91
2022/01/29 03:43:41;;;;;;;20.07;6.27;;;;;;;;;;6187632;23;20271;-92
2022/01/29 03:46:49;;;;;;;14.03;6.23;;;;;;;;;;6188345;23;20192;-90
2022/01/29 03:49:55;;;;;;;15.23;6.03;;;;;;;;;;6188375;23;20167;-91
2022/01/29 03:53:03;;;;;;;16.83;6.17;;;;;;;;;;6187482;23;20180;-91
2022/01/29 03:56:11;;;;;;;17.87;6.73;;;;;;;;;;6186805;23;20171;-92
2022/01/29 03:59:17;;;;;;;19.27;7.17;;;;;;;;;;6188305;23;20200;-91
2022/01/29 04:02:22;;;;;;;15.00;6.70;;;;;;;;;;6226352;23;20210;-92
2022/01/29 04:05:28;;;;;;;20.30;6.90;;;;;;;;;;6235128;23;20187;-91
2022/01/29 04:08:40;;;;;;;22.37;6.37;;;;;;;;;;6235529;23;20210;-92
2022/01/29 04:11:50;;;;;;;22.23;7.17;;;;;;;;;;6234634;23;20180;-92
2022/01/29 04:14:57;;;;;;;18.37;6.60;;;;;;;;;;6234970;23;20172;-92
2022/01/29 04:18:05;;;;;;;18.37;6.67;;;;;;;;;;6233837;23;20170;-89
2022/01/29 04:21:11;;;;;;;17.53;6.60;;;;;;;;;;6235702;23;20163;-93
2022/01/29 04:24:20;;;;;;;17.17;7.10;;;;;;;;;;6234780;23;20250;-90
2022/01/29 04:27:34;;;;;;;14.87;6.60;;;;;;;;;;6234331;23;20167;-92
2022/01/29 04:30:48;;;;;;;17.40;6.93;;;;;;;;;;6235332;23;20220;-93
2022/01/29 04:33:57;;;;;;;15.20;6.57;;;;;;;;;;6233674;23;20158;-91
2022/01/29 04:37:03;;;;;;;15.83;7.03;;;;;;;;;;6233484;23;20170;-91
2022/01/29 04:40:09;;;;;;;20.30;6.70;;;;;;;;;;6233342;23;20663;-91
2022/01/29 04:43:17;;;;;;;17.73;6.67;;;;;;;;;;6235521;23;20215;-91
2022/01/29 04:46:23;;;;;;;15.93;6.20;;;;;;;;;;6236070;23;20167;-94
2022/01/29 04:49:33;;;;;;;18.70;6.47;;;;;;;;;;6235444;23;20160;-91
2022/01/29 04:52:39;;;;;;;16.33;6.57;;;;;;;;;;6236277;23;20159;-90
2022/01/29 04:55:44;;;;;;;19.50;6.33;;;;;;;;;;6236119;23;20171;-90
2022/01/29 23:22:44;;;;;;;2.77;1.00;;;;;;;;;;6171823;22;20219;-91
2022/01/29 23:26:01;;;;;;;2.67;0.90;;;;;;;;;;6216698;23;20188;-90
2022/01/29 23:29:09;;;;;;;2.87;1.73;;;;;;;;;;6217062;23;20494;-90
2022/01/29 23:32:18;;;;;;;1.33;1.00;;;;;;;;;;6217834;23;20167;-91
2022/01/29 23:35:25;;;;;;;1.67;0.90;;;;;;;;;;6220394;23;20171;-89
2022/01/29 23:38:32;;;;;;;1.83;1.00;;;;;;;;;;6219911;23;20150;-88
2022/01/29 23:45:21;;;;;;;1.13;0.90;;;;;;;;;;6219586;22;20174;-90
2022/01/29 23:52:01;;;;;;;1.57;0.90;;;;;;;;;;6221040;22;20168;-91
2022/01/29 23:55:12;;;;;;;1.70;0.90;;;;;;;;;;6219513;22;20175;-89
2022/01/29 23:58:17;;;;;;;2.00;1.00;;;;;;;;;;6219890;23;20183;-90
